sensor_id;sensor_type;location;lat;lon;timestamp;pressure;altitude;pressure_sealevel;temperature;humidity
54248;BME280;40161;39.768;2.722;2023-07-22T00:02:23;101082.16;;;27.70;74.99
54248;BME280;40161;39.768;2.722;2023-07-22T00:04:51;101092.78;;;27.84;74.90
54248;BME280;40161;39.768;2.722;2023-07-22T00:07:17;101086.97;;;27.88;75.35
54248;BME280;40161;39.768;2.722;2023-07-22T00:09:43;101066.03;;;27.71;75.38
54248;BME280;40161;39.768;2.722;2023-07-22T00:12:09;101084.78;;;27.83;74.70
54248;BME280;40161;39.768;2.722;2023-07-22T00:14:40;101095.16;;;27.77;75.16
54248;BME280;40161;39.768;2.722;2023-07-22T00:17:07;101075.91;;;27.66;75.45
54248;BME280;40161;39.768;2.722;2023-07-22T00:19:33;101087.19;;;27.66;75.73
54248;BME280;40161;39.768;2.722;2023-07-22T00:21:59;101079.81;;;27.68;75.66
54248;BME280;40161;39.768;2.722;2023-07-22T00:24:25;101102.50;;;27.83;75.42
54248;BME280;40161;39.768;2.722;2023-07-22T00:26:50;101109.81;;;27.90;75.05
54248;BME280;40161;39.768;2.722;2023-07-22T00:29:16;101111.56;;;27.87;74.89
54248;BME280;40161;39.768;2.722;2023-07-22T00:31:42;101097.34;;;27.82;74.71
54248;BME280;40161;39.768;2.722;2023-07-22T00:34:07;101106.97;;;27.99;74.63
54248;BME280;40161;39.768;2.722;2023-07-22T00:36:33;101111.28;;;28.09;74.15
54248;BME280;40161;39.768;2.722;2023-07-22T00:38:59;101078.16;;;27.95;74.16
54248;BME280;40161;39.768;2.722;2023-07-22T00:41:24;101111.06;;;28.22;73.56
54248;BME280;40161;39.768;2.722;2023-07-22T00:43:50;101107.28;;;28.25;72.76
54248;BME280;40161;39.768;2.722;2023-07-22T00:46:15;101104.34;;;28.20;73.20
54248;BME280;40161;39.768;2.722;2023-07-22T00:48:41;101122.53;;;28.19;74.11
54248;BME280;40161;39.768;2.722;2023-07-22T00:51:07;101103.00;;;28.06;74.46
54248;BME280;40161;39.768;2.722;2023-07-22T00:53:33;101134.88;;;28.21;74.09
54248;BME280;40161;39.768;2.722;2023-07-22T00:55:58;101143.34;;;28.21;74.69
54248;BME280;40161;39.768;2.722;2023-07-22T00:58:24;101149.66;;;28.16;74.13
54248;BME280;40161;39.768;2.722;2023-07-22T01:00:50;101152.69;;;28.03;74.39
54248;BME280;40161;39.768;2.722;2023-07-22T01:03:15;101125.25;;;28.04;75.17
54248;BME280;40161;39.768;2.722;2023-07-22T01:05:41;101081.34;;;28.12;74.53
54248;BME280;40161;39.768;2.722;2023-07-22T01:08:07;101082.31;;;28.09;74.18
54248;BME280;40161;39.768;2.722;2023-07-22T01:10:33;101102.06;;;28.09;73.83
54248;BME280;40161;39.768;2.722;2023-07-22T01:12:58;101111.81;;;27.99;75.02
54248;BME280;40161;39.768;2.722;2023-07-22T01:15:24;101089.78;;;27.88;74.72
54248;BME280;40161;39.768;2.722;2023-07-22T01:17:51;101077.50;;;28.00;74.43
54248;BME280;40161;39.768;2.722;2023-07-22T01:20:17;101061.88;;;27.90;74.79
54248;BME280;40161;39.768;2.722;2023-07-22T01:22:51;101069.53;;;27.99;74.42
54248;BME280;40161;39.768;2.722;2023-07-22T01:25:22;101088.16;;;27.96;74.59
54248;BME280;40161;39.768;2.722;2023-07-22T01:27:48;101075.69;;;27.88;75.34
54248;BME280;40161;39.768;2.722;2023-07-22T01:30:15;101060.31;;;27.89;75.31
54248;BME280;40161;39.768;2.722;2023-07-22T01:32:40;101057.00;;;27.90;74.87
54248;BME280;40161;39.768;2.722;2023-07-22T01:35:07;101021.63;;;27.89;75.38
54248;BME280;40161;39.768;2.722;2023-07-22T01:37:35;101021.63;;;27.89;75.35
54248;BME280;40161;39.768;2.722;2023-07-22T01:40:02;101035.94;;;27.77;76.10
54248;BME280;40161;39.768;2.722;2023-07-22T01:42:41;101021.13;;;27.67;75.28
54248;BME280;40161;39.768;2.722;2023-07-22T01:45:08;101046.72;;;27.87;75.68
54248;BME280;40161;39.768;2.722;2023-07-22T01:47:34;101064.94;;;27.77;75.32
54248;BME280;40161;39.768;2.722;2023-07-22T01:50:04;101077.47;;;27.76;75.23
54248;BME280;40161;39.768;2.722;2023-07-22T01:52:31;101095.47;;;27.69;75.17
54248;BME280;40161;39.768;2.722;2023-07-22T01:54:57;101105.72;;;27.58;76.65
54248;BME280;40161;39.768;2.722;2023-07-22T01:57:23;101096.34;;;27.52;76.24
54248;BME280;40161;39.768;2.722;2023-07-22T01:59:48;101109.47;;;27.55;75.94
54248;BME280;40161;39.768;2.722;2023-07-22T02:02:14;101090.72;;;27.42;77.18
54248;BME280;40161;39.768;2.722;2023-07-22T02:04:39;101068.84;;;27.37;76.28
54248;BME280;40161;39.768;2.722;2023-07-22T02:07:05;101067.28;;;27.69;76.24
54248;BME280;40161;39.768;2.722;2023-07-22T02:09:32;101040.41;;;27.59;75.58
54248;BME280;40161;39.768;2.722;2023-07-22T02:11:58;101058.41;;;27.62;76.28
54248;BME280;40161;39.768;2.722;2023-07-22T02:14:24;101049.66;;;27.60;76.30
54248;BME280;40161;39.768;2.722;2023-07-22T02:16:49;101028.50;;;27.55;75.91
54248;BME280;40161;39.768;2.722;2023-07-22T02:19:15;101041.72;;;27.73;75.65
54248;BME280;40161;39.768;2.722;2023-07-22T02:21:41;101047.03;;;27.80;74.73
54248;BME280;40161;39.768;2.722;2023-07-22T02:24:08;101066.50;;;27.78;75.39
54248;BME280;40161;39.768;2.722;2023-07-22T02:26:33;101051.47;;;27.72;75.34
54248;BME280;40161;39.768;2.722;2023-07-22T02:28:59;101031.41;;;27.70;76.08
54248;BME280;40161;39.768;2.722;2023-07-22T02:31:24;101016.06;;;27.71;75.74
54248;BME280;40161;39.768;2.722;2023-07-22T02:33:50;101009.16;;;27.72;75.14
54248;BME280;40161;39.768;2.722;2023-07-22T02:36:16;101001.81;;;27.75;74.97
54248;BME280;40161;39.768;2.722;2023-07-22T02:38:42;101000.94;;;27.59;75.75
54248;BME280;40161;39.768;2.722;2023-07-22T02:41:07;100999.41;;;27.49;76.52
54248;BME280;40161;39.768;2.722;2023-07-22T02:43:34;100953.66;;;27.30;76.96
54248;BME280;40161;39.768;2.722;2023-07-22T02:46:02;100954.09;;;27.38;76.77
54248;BME280;40161;39.768;2.722;2023-07-22T02:48:28;100960.78;;;27.50;76.46
54248;BME280;40161;39.768;2.722;2023-07-22T02:50:54;100951.66;;;27.55;76.71
54248;BME280;40161;39.768;2.722;2023-07-22T02:53:20;100952.00;;;27.48;77.06
54248;BME280;40161;39.768;2.722;2023-07-22T02:55:46;100956.75;;;27.32;76.89
54248;BME280;40161;39.768;2.722;2023-07-22T02:58:12;100950.53;;;27.28;77.87
54248;BME280;40161;39.768;2.722;2023-07-22T03:00:37;100967.50;;;27.19;78.76
54248;BME280;40161;39.768;2.722;2023-07-22T03:03:03;100967.50;;;27.19;78.04
54248;BME280;40161;39.768;2.722;2023-07-22T03:05:31;100967.94;;;27.17;78.37
54248;BME280;40161;39.768;2.722;2023-07-22T03:07:58;100981.34;;;27.32;77.84
54248;BME280;40161;39.768;2.722;2023-07-22T03:10:24;100985.25;;;27.34;77.32
54248;BME280;40161;39.768;2.722;2023-07-22T03:12:55;100991.09;;;27.21;77.12
54248;BME280;40161;39.768;2.722;2023-07-22T03:15:22;100999.69;;;27.27;77.79
54248;BME280;40161;39.768;2.722;2023-07-22T03:17:47;101006.69;;;27.32;77.16
54248;BME280;40161;39.768;2.722;2023-07-22T03:20:13;101019.06;;;27.34;77.76
54248;BME280;40161;39.768;2.722;2023-07-22T03:22:42;101030.34;;;27.25;77.03
54248;BME280;40161;39.768;2.722;2023-07-22T03:25:12;101035.13;;;26.91;79.95
54248;BME280;40161;39.768;2.722;2023-07-22T03:27:38;101029.44;;;27.10;78.71
54248;BME280;40161;39.768;2.722;2023-07-22T03:30:05;101026.00;;;27.15;78.47
54248;BME280;40161;39.768;2.722;2023-07-22T03:32:40;101022.06;;;27.21;77.94
54248;BME280;40161;39.768;2.722;2023-07-22T03:35:07;101020.78;;;27.32;77.42
54248;BME280;40161;39.768;2.722;2023-07-22T03:37:34;101019.41;;;27.27;77.73
54248;BME280;40161;39.768;2.722;2023-07-22T03:40:02;101012.22;;;27.26;78.03
54248;BME280;40161;39.768;2.722;2023-07-22T03:42:28;101034.16;;;27.22;78.11
54248;BME280;40161;39.768;2.722;2023-07-22T03:44:54;101014.59;;;27.09;77.99
54248;BME280;40161;39.768;2.722;2023-07-22T03:47:19;101022.25;;;27.09;78.24
54248;BME280;40161;39.768;2.722;2023-07-22T03:49:45;101042.72;;;27.18;78.49
54248;BME280;40161;39.768;2.722;2023-07-22T03:52:11;100998.72;;;26.69;79.65
54248;BME280;40161;39.768;2.722;2023-07-22T03:54:39;101016.25;;;26.64;80.50
54248;BME280;40161;39.768;2.722;2023-07-22T03:57:05;101029.50;;;26.82;80.09
54248;BME280;40161;39.768;2.722;2023-07-22T03:59:31;101023.59;;;26.71;81.56
54248;BME280;40161;39.768;2.722;2023-07-22T04:01:57;101009.53;;;26.62;81.46
54248;BME280;40161;39.768;2.722;2023-07-22T04:04:22;101009.53;;;26.62;82.27
54248;BME280;40161;39.768;2.722;2023-07-22T04:06:48;101034.06;;;26.61;82.66
54248;BME280;40161;39.768;2.722;2023-07-22T04:09:13;101028.13;;;26.78;81.56
54248;BME280;40161;39.768;2.722;2023-07-22T04:11:39;101001.53;;;26.79;81.35
54248;BME280;40161;39.768;2.722;2023-07-22T04:14:05;100965.88;;;26.75;80.51
54248;BME280;40161;39.768;2.722;2023-07-22T04:16:30;100969.28;;;26.89;80.34
54248;BME280;40161;39.768;2.722;2023-07-22T04:18:56;100923.97;;;26.68;81.05
54248;BME280;40161;39.768;2.722;2023-07-22T04:21:21;100950.84;;;26.79;81.14
54248;BME280;40161;39.768;2.722;2023-07-22T04:23:47;100961.00;;;26.76;81.50
54248;BME280;40161;39.768;2.722;2023-07-22T04:26:14;100970.44;;;26.64;82.03
54248;BME280;40161;39.768;2.722;2023-07-22T04:28:39;100981.22;;;26.56;82.65
54248;BME280;40161;39.768;2.722;2023-07-22T04:31:05;100988.56;;;26.63;82.66
54248;BME280;40161;39.768;2.722;2023-07-22T04:33:31;101004.81;;;26.68;81.92
54248;BME280;40161;39.768;2.722;2023-07-22T04:35:58;101006.72;;;26.62;82.58
54248;BME280;40161;39.768;2.722;2023-07-22T04:38:25;100976.69;;;26.31;84.00
54248;BME280;40161;39.768;2.722;2023-07-22T04:40:50;101005.13;;;26.42;84.50
54248;BME280;40161;39.768;2.722;2023-07-22T04:43:16;101005.47;;;26.54;83.59
54248;BME280;40161;39.768;2.722;2023-07-22T04:45:44;101004.78;;;26.77;82.63
54248;BME280;40161;39.768;2.722;2023-07-22T04:48:14;101003.13;;;26.70;82.33
54248;BME280;40161;39.768;2.722;2023-07-22T04:50:40;100997.81;;;26.54;83.82
54248;BME280;40161;39.768;2.722;2023-07-22T04:53:06;101003.72;;;26.56;82.69
54248;BME280;40161;39.768;2.722;2023-07-22T04:55:32;101010.16;;;26.47;83.54
54248;BME280;40161;39.768;2.722;2023-07-22T04:57:58;101022.81;;;26.52;83.86
54248;BME280;40161;39.768;2.722;2023-07-22T05:00:23;101010.63;;;26.55;82.54
54248;BME280;40161;39.768;2.722;2023-07-22T05:02:49;101042.66;;;26.76;82.72
54248;BME280;40161;39.768;2.722;2023-07-22T05:05:15;101038.56;;;26.77;82.46
54248;BME280;40161;39.768;2.722;2023-07-22T05:07:42;101028.56;;;26.76;82.66
54248;BME280;40161;39.768;2.722;2023-07-22T05:10:10;101022.94;;;26.76;82.06
54248;BME280;40161;39.768;2.722;2023-07-22T05:12:38;101011.56;;;26.70;81.91
54248;BME280;40161;39.768;2.722;2023-07-22T05:15:05;101035.13;;;26.82;81.55
54248;BME280;40161;39.768;2.722;2023-07-22T05:17:30;101044.19;;;26.86;81.74
54248;BME280;40161;39.768;2.722;2023-07-22T05:19:57;101031.53;;;26.82;81.66
54248;BME280;40161;39.768;2.722;2023-07-22T05:22:23;101031.06;;;26.83;81.53
54248;BME280;40161;39.768;2.722;2023-07-22T05:24:48;101040.78;;;26.82;82.05
54248;BME280;40161;39.768;2.722;2023-07-22T05:27:14;101031.09;;;26.74;82.92
54248;BME280;40161;39.768;2.722;2023-07-22T05:29:40;101038.41;;;26.90;81.11
54248;BME280;40161;39.768;2.722;2023-07-22T05:32:06;101052.97;;;26.79;82.41
54248;BME280;40161;39.768;2.722;2023-07-22T05:34:32;101047.34;;;26.70;82.63
54248;BME280;40161;39.768;2.722;2023-07-22T05:36:57;101045.47;;;26.76;82.11
54248;BME280;40161;39.768;2.722;2023-07-22T05:39:23;101052.50;;;26.71;82.69
54248;BME280;40161;39.768;2.722;2023-07-22T05:41:48;101049.53;;;26.75;82.66
54248;BME280;40161;39.768;2.722;2023-07-22T05:44:14;101067.97;;;26.85;82.04
54248;BME280;40161;39.768;2.722;2023-07-22T05:46:39;101066.09;;;26.91;81.20
54248;BME280;40161;39.768;2.722;2023-07-22T05:49:05;101045.31;;;26.80;78.76
54248;BME280;40161;39.768;2.722;2023-07-22T05:51:30;101073.75;;;27.00;76.92
54248;BME280;40161;39.768;2.722;2023-07-22T05:53:56;101071.53;;;27.04;75.17
54248;BME280;40161;39.768;2.722;2023-07-22T05:56:22;101051.22;;;27.00;74.61
54248;BME280;40161;39.768;2.722;2023-07-22T05:58:48;101062.34;;;27.13;73.53
54248;BME280;40161;39.768;2.722;2023-07-22T06:01:14;101078.13;;;27.19;72.68
54248;BME280;40161;39.768;2.722;2023-07-22T06:03:40;101086.25;;;27.17;72.02
54248;BME280;40161;39.768;2.722;2023-07-22T06:06:06;101092.50;;;27.21;71.53
54248;BME280;40161;39.768;2.722;2023-07-22T06:08:32;101063.56;;;27.03;70.99
54248;BME280;40161;39.768;2.722;2023-07-22T06:10:57;101107.50;;;27.28;70.35
54248;BME280;40161;39.768;2.722;2023-07-22T06:13:23;101121.59;;;27.18;71.60
54248;BME280;40161;39.768;2.722;2023-07-22T06:15:48;101116.28;;;27.11;71.61
54248;BME280;40161;39.768;2.722;2023-07-22T06:18:14;101117.25;;;27.08;70.67
54248;BME280;40161;39.768;2.722;2023-07-22T06:20:39;101129.28;;;27.18;70.47
54248;BME280;40161;39.768;2.722;2023-07-22T06:23:06;101121.13;;;27.11;70.99
54248;BME280;40161;39.768;2.722;2023-07-22T06:25:31;101147.72;;;27.28;70.15
54248;BME280;40161;39.768;2.722;2023-07-22T06:27:58;101159.47;;;27.36;69.10
54248;BME280;40161;39.768;2.722;2023-07-22T06:30:24;101156.19;;;27.37;68.98
54248;BME280;40161;39.768;2.722;2023-07-22T06:32:49;101148.66;;;27.43;68.77
54248;BME280;40161;39.768;2.722;2023-07-22T06:35:14;101149.59;;;27.40;68.80
54248;BME280;40161;39.768;2.722;2023-07-22T06:37:40;101145.84;;;27.43;68.31
54248;BME280;40161;39.768;2.722;2023-07-22T06:40:06;101150.81;;;27.49;68.51
54248;BME280;40161;39.768;2.722;2023-07-22T06:42:32;101158.81;;;27.50;68.86
54248;BME280;40161;39.768;2.722;2023-07-22T06:44:57;101129.56;;;27.38;67.86
54248;BME280;40161;39.768;2.722;2023-07-22T06:47:23;101156.00;;;27.50;67.49
54248;BME280;40161;39.768;2.722;2023-07-22T06:49:49;101161.75;;;27.56;67.19
54248;BME280;40161;39.768;2.722;2023-07-22T06:52:16;101156.13;;;27.56;66.47
54248;BME280;40161;39.768;2.722;2023-07-22T06:54:42;101119.53;;;27.37;66.04
54248;BME280;40161;39.768;2.722;2023-07-22T06:57:08;101144.06;;;27.55;65.89
54248;BME280;40161;39.768;2.722;2023-07-22T06:59:34;101159.69;;;27.75;65.08
54248;BME280;40161;39.768;2.722;2023-07-22T07:01:59;101174.56;;;27.75;65.47
54248;BME280;40161;39.768;2.722;2023-07-22T07:04:25;101175.19;;;27.79;64.75
54248;BME280;40161;39.768;2.722;2023-07-22T07:06:51;101180.84;;;27.79;64.68
54248;BME280;40161;39.768;2.722;2023-07-22T07:09:16;101188.03;;;27.80;65.04
54248;BME280;40161;39.768;2.722;2023-07-22T07:11:42;101192.13;;;27.79;65.37
54248;BME280;40161;39.768;2.722;2023-07-22T07:14:08;101178.50;;;27.78;65.74
54248;BME280;40161;39.768;2.722;2023-07-22T07:16:33;101172.81;;;27.87;64.41
54248;BME280;40161;39.768;2.722;2023-07-22T07:19:00;101185.66;;;27.88;64.11
54248;BME280;40161;39.768;2.722;2023-07-22T07:21:26;101188.94;;;27.96;63.98
54248;BME280;40161;39.768;2.722;2023-07-22T07:23:53;101196.78;;;27.91;63.43
54248;BME280;40161;39.768;2.722;2023-07-22T07:26:19;101193.00;;;27.95;62.85
54248;BME280;40161;39.768;2.722;2023-07-22T07:28:49;101188.25;;;28.01;62.92
54248;BME280;40161;39.768;2.722;2023-07-22T07:31:18;101204.25;;;28.04;63.04
54248;BME280;40161;39.768;2.722;2023-07-22T07:33:43;101210.34;;;28.11;62.77
54248;BME280;40161;39.768;2.722;2023-07-22T07:36:09;101200.44;;;28.16;61.11
54248;BME280;40161;39.768;2.722;2023-07-22T07:38:34;101193.09;;;28.09;61.20
54248;BME280;40161;39.768;2.722;2023-07-22T07:41:02;101206.53;;;28.14;61.14
54248;BME280;40161;39.768;2.722;2023-07-22T07:43:28;101208.22;;;28.21;61.03
54248;BME280;40161;39.768;2.722;2023-07-22T07:46:22;101190.69;;;28.17;61.70
54248;BME280;40161;39.768;2.722;2023-07-22T07:48:54;101211.44;;;28.38;60.50
54248;BME280;40161;39.768;2.722;2023-07-22T07:51:22;101215.22;;;28.44;59.49
54248;BME280;40161;39.768;2.722;2023-07-22T07:53:48;101214.06;;;28.51;59.95
54248;BME280;40161;39.768;2.722;2023-07-22T07:56:15;101218.00;;;28.53;58.62
54248;BME280;40161;39.768;2.722;2023-07-22T07:58:41;101228.59;;;28.58;59.00
54248;BME280;40161;39.768;2.722;2023-07-22T08:01:07;101237.50;;;28.66;58.50
54248;BME280;40161;39.768;2.722;2023-07-22T08:03:34;101228.84;;;28.70;58.78
54248;BME280;40161;39.768;2.722;2023-07-22T08:06:02;101228.19;;;28.75;59.49
54248;BME280;40161;39.768;2.722;2023-07-22T08:08:28;101229.75;;;28.76;60.08
54248;BME280;40161;39.768;2.722;2023-07-22T08:11:05;101236.31;;;28.82;59.36
54248;BME280;40161;39.768;2.722;2023-07-22T08:13:31;101235.94;;;28.89;59.56
54248;BME280;40161;39.768;2.722;2023-07-22T08:15:59;101220.28;;;28.88;59.72
54248;BME280;40161;39.768;2.722;2023-07-22T08:18:25;101220.19;;;28.97;58.93
54248;BME280;40161;39.768;2.722;2023-07-22T08:20:52;101202.63;;;28.93;59.74
54248;BME280;40161;39.768;2.722;2023-07-22T08:23:19;101209.34;;;29.05;60.82
54248;BME280;40161;39.768;2.722;2023-07-22T08:25:45;101222.78;;;29.10;59.78
54248;BME280;40161;39.768;2.722;2023-07-22T08:28:10;101221.16;;;29.18;58.59
54248;BME280;40161;39.768;2.722;2023-07-22T08:30:36;101213.75;;;29.21;58.67
54248;BME280;40161;39.768;2.722;2023-07-22T08:33:02;101219.50;;;29.26;58.86
54248;BME280;40161;39.768;2.722;2023-07-22T08:35:28;101219.91;;;29.34;58.77
54248;BME280;40161;39.768;2.722;2023-07-22T08:37:53;101192.41;;;29.20;58.01
54248;BME280;40161;39.768;2.722;2023-07-22T08:40:20;101208.13;;;29.36;58.91
54248;BME280;40161;39.768;2.722;2023-07-22T08:42:46;101221.75;;;29.52;58.35
54248;BME280;40161;39.768;2.722;2023-07-22T08:45:13;101226.19;;;29.53;57.74
54248;BME280;40161;39.768;2.722;2023-07-22T08:47:45;101225.47;;;29.58;57.50
54248;BME280;40161;39.768;2.722;2023-07-22T08:50:15;101217.50;;;29.56;57.16
54248;BME280;40161;39.768;2.722;2023-07-22T08:52:43;101218.78;;;29.70;56.69
54248;BME280;40161;39.768;2.722;2023-07-22T08:55:09;101219.38;;;29.74;55.84
54248;BME280;40161;39.768;2.722;2023-07-22T08:57:36;101220.34;;;29.71;56.04
54248;BME280;40161;39.768;2.722;2023-07-22T09:00:04;101202.50;;;29.65;56.44
54248;BME280;40161;39.768;2.722;2023-07-22T09:02:33;101215.56;;;29.77;56.06
54248;BME280;40161;39.768;2.722;2023-07-22T09:04:59;101201.91;;;29.76;56.02
54248;BME280;40161;39.768;2.722;2023-07-22T09:07:25;101209.31;;;29.88;55.44
54248;BME280;40161;39.768;2.722;2023-07-22T09:09:52;101204.94;;;29.87;54.94
54248;BME280;40161;39.768;2.722;2023-07-22T09:12:20;101216.13;;;29.96;55.68
54248;BME280;40161;39.768;2.722;2023-07-22T09:14:47;101217.50;;;30.01;54.89
54248;BME280;40161;39.768;2.722;2023-07-22T09:17:13;101225.78;;;30.04;56.27
54248;BME280;40161;39.768;2.722;2023-07-22T09:19:39;101226.34;;;30.09;54.36
54248;BME280;40161;39.768;2.722;2023-07-22T09:22:04;101224.59;;;30.11;55.46
54248;BME280;40161;39.768;2.722;2023-07-22T09:24:30;101215.63;;;30.13;56.01
54248;BME280;40161;39.768;2.722;2023-07-22T09:26:57;101224.50;;;30.20;55.32
54248;BME280;40161;39.768;2.722;2023-07-22T09:29:36;101229.38;;;30.20;53.92
54248;BME280;40161;39.768;2.722;2023-07-22T09:32:02;101229.97;;;30.24;54.83
54248;BME280;40161;39.768;2.722;2023-07-22T09:34:29;101214.34;;;30.14;54.22
54248;BME280;40161;39.768;2.722;2023-07-22T09:36:56;101237.56;;;30.33;54.22
54248;BME280;40161;39.768;2.722;2023-07-22T09:39:23;101237.72;;;30.44;54.59
54248;BME280;40161;39.768;2.722;2023-07-22T09:41:49;101235.75;;;30.50;54.50
54248;BME280;40161;39.768;2.722;2023-07-22T09:44:15;101223.91;;;30.51;54.20
54248;BME280;40161;39.768;2.722;2023-07-22T09:46:42;101239.03;;;30.63;53.45
54248;BME280;40161;39.768;2.722;2023-07-22T09:49:12;101250.63;;;30.65;53.29
54248;BME280;40161;39.768;2.722;2023-07-22T09:51:39;101262.47;;;30.64;53.92
54248;BME280;40161;39.768;2.722;2023-07-22T09:54:06;101277.56;;;30.76;52.94
54248;BME280;40161;39.768;2.722;2023-07-22T09:56:42;101288.22;;;30.81;53.08
54248;BME280;40161;39.768;2.722;2023-07-22T09:59:09;101273.34;;;30.86;53.31
54248;BME280;40161;39.768;2.722;2023-07-22T10:01:38;101261.53;;;30.87;52.88
54248;BME280;40161;39.768;2.722;2023-07-22T10:04:05;101277.03;;;30.92;52.27
54248;BME280;40161;39.768;2.722;2023-07-22T10:06:32;101269.66;;;31.00;52.61
54248;BME280;40161;39.768;2.722;2023-07-22T10:09:05;101289.28;;;31.04;52.69
54248;BME280;40161;39.768;2.722;2023-07-22T10:11:34;101296.34;;;31.14;51.62
54248;BME280;40161;39.768;2.722;2023-07-22T10:14:04;101285.59;;;31.18;51.51
54248;BME280;40161;39.768;2.722;2023-07-22T10:16:30;101298.06;;;31.26;51.59
54248;BME280;40161;39.768;2.722;2023-07-22T10:18:57;101287.44;;;31.41;51.02
54248;BME280;40161;39.768;2.722;2023-07-22T10:21:24;101269.59;;;31.35;51.65
54248;BME280;40161;39.768;2.722;2023-07-22T10:23:51;101276.44;;;31.49;51.58
54248;BME280;40161;39.768;2.722;2023-07-22T10:26:18;101246.03;;;31.29;50.31
54248;BME280;40161;39.768;2.722;2023-07-22T10:28:45;101265.19;;;31.34;50.30
54248;BME280;40161;39.768;2.722;2023-07-22T10:31:11;101234.28;;;31.16;52.17
54248;BME280;40161;39.768;2.722;2023-07-22T10:33:38;101251.00;;;31.34;51.34
54248;BME280;40161;39.768;2.722;2023-07-22T10:36:13;101256.66;;;31.14;52.57
54248;BME280;40161;39.768;2.722;2023-07-22T10:38:39;101247.19;;;31.17;54.03
54248;BME280;40161;39.768;2.722;2023-07-22T10:41:12;101237.91;;;31.16;53.54
54248;BME280;40161;39.768;2.722;2023-07-22T10:43:39;101250.63;;;31.27;52.67
54248;BME280;40161;39.768;2.722;2023-07-22T10:46:10;101268.78;;;31.35;51.63
54248;BME280;40161;39.768;2.722;2023-07-22T10:48:37;101288.50;;;31.44;52.85
54248;BME280;40161;39.768;2.722;2023-07-22T10:51:09;101285.53;;;31.33;53.25
54248;BME280;40161;39.768;2.722;2023-07-22T10:53:48;101317.34;;;31.22;54.06
54248;BME280;40161;39.768;2.722;2023-07-22T10:56:15;101334.00;;;30.94;55.02
54248;BME280;40161;39.768;2.722;2023-07-22T11:01:24;101342.75;;;30.61;56.71
54248;BME280;40161;39.768;2.722;2023-07-22T11:17:00;101346.81;;;31.10;54.07
54248;BME280;40161;39.768;2.722;2023-07-22T11:19:26;101324.13;;;31.10;54.02
54248;BME280;40161;39.768;2.722;2023-07-22T11:21:53;101292.47;;;31.11;54.71
54248;BME280;40161;39.768;2.722;2023-07-22T11:24:20;101272.63;;;31.11;53.33
54248;BME280;40161;39.768;2.722;2023-07-22T11:26:47;101278.88;;;31.15;54.09
54248;BME280;40161;39.768;2.722;2023-07-22T11:29:13;101256.66;;;31.14;54.03
54248;BME280;40161;39.768;2.722;2023-07-22T11:31:41;101267.13;;;31.49;53.03
54248;BME280;40161;39.768;2.722;2023-07-22T11:34:11;101248.13;;;31.55;52.25
54248;BME280;40161;39.768;2.722;2023-07-22T11:36:37;101236.53;;;31.53;52.32
54248;BME280;40161;39.768;2.722;2023-07-22T11:39:03;101248.19;;;31.60;51.71
54248;BME280;40161;39.768;2.722;2023-07-22T11:41:30;101244.34;;;31.63;50.81
54248;BME280;40161;39.768;2.722;2023-07-22T11:43:59;101218.59;;;31.67;50.50
54248;BME280;40161;39.768;2.722;2023-07-22T11:46:26;101206.47;;;31.66;49.82
54248;BME280;40161;39.768;2.722;2023-07-22T11:48:53;101212.56;;;31.85;49.31
54248;BME280;40161;39.768;2.722;2023-07-22T11:51:23;101208.56;;;31.98;49.81
54248;BME280;40161;39.768;2.722;2023-07-22T11:53:50;101198.34;;;32.11;49.37
54248;BME280;40161;39.768;2.722;2023-07-22T11:56:25;101190.91;;;32.20;48.80
54248;BME280;40161;39.768;2.722;2023-07-22T11:58:53;101193.25;;;32.21;47.88
54248;BME280;40161;39.768;2.722;2023-07-22T12:01:19;101184.50;;;32.30;46.99
54248;BME280;40161;39.768;2.722;2023-07-22T12:03:45;101202.72;;;32.50;46.73
54248;BME280;40161;39.768;2.722;2023-07-22T12:06:12;101187.22;;;32.51;45.58
54248;BME280;40161;39.768;2.722;2023-07-22T12:08:44;101196.78;;;32.53;45.10
54248;BME280;40161;39.768;2.722;2023-07-22T12:11:23;101215.19;;;32.64;45.08
54248;BME280;40161;39.768;2.722;2023-07-22T12:16:37;101202.81;;;32.72;45.97
54248;BME280;40161;39.768;2.722;2023-07-22T12:19:04;101201.25;;;32.71;45.70
54248;BME280;40161;39.768;2.722;2023-07-22T12:21:29;101201.84;;;32.92;44.44
54248;BME280;40161;39.768;2.722;2023-07-22T12:23:55;101190.28;;;33.01;44.55
54248;BME280;40161;39.768;2.722;2023-07-22T12:26:21;101189.56;;;33.18;46.73
54248;BME280;40161;39.768;2.722;2023-07-22T12:28:47;101205.81;;;33.00;47.03
54248;BME280;40161;39.768;2.722;2023-07-22T12:31:12;101214.50;;;32.80;47.83
54248;BME280;40161;39.768;2.722;2023-07-22T12:33:38;101219.13;;;32.77;47.59
54248;BME280;40161;39.768;2.722;2023-07-22T12:36:04;101234.34;;;32.74;47.91
54248;BME280;40161;39.768;2.722;2023-07-22T12:38:30;101232.47;;;32.60;48.28
54248;BME280;40161;39.768;2.722;2023-07-22T12:40:56;101223.63;;;32.47;48.67
54248;BME280;40161;39.768;2.722;2023-07-22T12:43:21;101213.06;;;32.53;48.80
54248;BME280;40161;39.768;2.722;2023-07-22T12:45:47;101220.53;;;32.50;48.53
54248;BME280;40161;39.768;2.722;2023-07-22T12:48:13;101227.69;;;32.40;48.15
54248;BME280;40161;39.768;2.722;2023-07-22T12:50:38;101243.34;;;32.30;49.26
54248;BME280;40161;39.768;2.722;2023-07-22T12:53:04;101233.22;;;32.18;49.75
54248;BME280;40161;39.768;2.722;2023-07-22T12:55:29;101221.81;;;32.12;49.22
54248;BME280;40161;39.768;2.722;2023-07-22T12:57:55;101185.16;;;32.08;49.29
54248;BME280;40161;39.768;2.722;2023-07-22T13:00:21;101190.91;;;32.20;49.23
54248;BME280;40161;39.768;2.722;2023-07-22T13:02:47;101202.56;;;32.27;48.59
54248;BME280;40161;39.768;2.722;2023-07-22T13:05:13;101203.31;;;32.22;48.86
54248;BME280;40161;39.768;2.722;2023-07-22T13:07:39;101211.94;;;32.39;48.18